TAF and METAR

No METAR available for Imperatriz Airport

TAF for Imperatriz Airport

TAF SBIZ 291500Z 2918/3006 20005KT 9999 SCT020 TX32/2918Z TN26/3005Z RMK PEA
Report created 29. mai 17:00

between 29. mai 20:00 - 30. mai 08:00

wind 5 knots from SSW (200°) visibility > 10km scattered clouds (~50% cover) at 2000 feet Max temperature 32° expected today at around 20 o'clock Min temperature 26° expected today at around 07 o'clock